Time;durP1;ratioP1;P1;durP2;ratioP2;P2;SDS_P1;SDS_P2;PMS_P1;PMS_P2;Temp;Humidity;BMP_temperature;BMP_pressure;BME280_temperature;BME280_humidity;BME280_pressure;Samples;Min_cycle;Max_cycle;Signal;HPM_P1;HPM_P2
2023/02/04 00:00:12;;;;;;;;;;;;;;;8.23;nan;101854.66;5009413;28;20291;-85
2023/02/04 00:02:37;;;;;;;;;;;;;;;8.25;nan;101861.53;5024664;28;19975;-85
2023/02/04 00:05:03;;;;;;;;;;;;;;;8.24;nan;101857.19;5020169;28;19917;-85
2023/02/04 00:07:28;;;;;;;;;;;;;;;8.26;nan;101865.00;5031230;28;19922;-85
2023/02/04 00:09:53;;;;;;;;;;;;;;;8.26;nan;101865.81;5013692;28;20390;-85
2023/02/04 00:12:18;;;;;;;;;;;;;;;8.26;nan;101859.72;5008246;28;19917;-85
2023/02/04 00:14:43;;;;;;;;;;;;;;;8.24;nan;101865.09;5011884;28;19973;-85
2023/02/04 00:17:10;;;;;;;;;;;;;;;8.23;nan;101868.69;5008647;28;19921;-85
2023/02/04 00:19:36;;;;;;;;;;;;;;;8.20;nan;101873.28;5011335;28;20080;-85
2023/02/04 00:22:02;;;;;;;;;;;;;;;8.19;nan;101872.47;5008385;28;19995;-85
2023/02/04 00:24:27;;;;;;;;;;;;;;;8.26;nan;101876.38;5010865;28;19917;-86
2023/02/04 00:26:53;;;;;;;;;;;;;;;8.25;nan;101881.75;5028171;28;20037;-86
2023/02/04 00:29:18;;;;;;;;;;;;;;;8.22;nan;101876.66;5035080;28;19925;-86
2023/02/04 00:31:43;;;;;;;;;;;;;;;8.24;nan;101885.31;5042993;28;19913;-87
2023/02/04 00:34:08;;;;;;;;;;;;;;;8.22;nan;101893.34;5031863;28;19916;-86
2023/02/04 00:36:33;;;;;;;;;;;;;;;8.23;nan;101892.41;5040025;28;19947;-85
2023/02/04 00:38:58;;;;;;;;;;;;;;;8.22;nan;101889.84;5039720;28;19917;-85
2023/02/04 00:41:24;;;;;;;;;;;;;;;8.20;nan;101889.97;5028106;28;19964;-85
2023/02/04 00:43:49;;;;;;;;;;;;;;;8.17;nan;101887.53;5026198;28;20370;-85
2023/02/04 00:46:14;;;;;;;;;;;;;;;8.17;nan;101895.44;5014657;28;19913;-85
2023/02/04 00:48:39;;;;;;;;;;;;;;;8.12;nan;101897.53;5015005;28;19936;-85
2023/02/04 00:51:04;;;;;;;;;;;;;;;8.11;nan;101884.47;5012715;28;19925;-85
2023/02/04 00:53:30;;;;;;;;;;;;;;;8.12;nan;101879.09;5022298;28;19914;-86
2023/02/04 00:55:55;;;;;;;;;;;;;;;8.16;nan;101890.28;5018667;28;19924;-84
2023/02/04 00:58:20;;;;;;;;;;;;;;;8.15;nan;101889.44;5013832;28;19964;-85
2023/02/04 01:00:45;;;;;;;;;;;;;;;8.14;nan;101885.09;5017322;28;19917;-85
2023/02/04 01:03:11;;;;;;;;;;;;;;;8.12;nan;101899.31;5021616;28;20064;-85
2023/02/04 01:05:36;;;;;;;;;;;;;;;8.13;nan;101899.22;5023762;28;19901;-84
2023/02/04 01:08:01;;;;;;;;;;;;;;;8.12;nan;101905.44;5004271;28;19921;-85
2023/02/04 01:10:26;;;;;;;;;;;;;;;8.07;nan;101900.47;5010561;28;19913;-85
2023/02/04 01:12:52;;;;;;;;;;;;;;;8.08;nan;101911.88;5009891;28;19917;-85
2023/02/04 01:15:17;;;;;;;;;;;;;;;8.08;nan;101920.63;5022288;28;19932;-85
2023/02/04 01:17:42;;;;;;;;;;;;;;;8.02;nan;101917.53;5014756;28;20563;-85
2023/02/04 01:20:08;;;;;;;;;;;;;;;8.01;nan;101916.69;5018841;28;20008;-85
2023/02/04 01:22:33;;;;;;;;;;;;;;;8.00;nan;101912.34;5016078;28;19921;-85
2023/02/04 01:24:59;;;;;;;;;;;;;;;7.99;nan;101918.59;5019679;28;19924;-85
2023/02/04 01:27:24;;;;;;;;;;;;;;;7.94;nan;101918.03;5020462;28;20386;-85
2023/02/04 01:29:49;;;;;;;;;;;;;;;7.91;nan;101923.50;5016423;28;20291;-85
2023/02/04 01:32:14;;;;;;;;;;;;;;;7.92;nan;101927.00;5018175;28;19953;-85
2023/02/04 01:34:39;;;;;;;;;;;;;;;7.92;nan;101921.72;5012716;28;20401;-86
2023/02/04 01:37:05;;;;;;;;;;;;;;;7.90;nan;101923.59;5020343;28;19992;-86
2023/02/04 01:39:30;;;;;;;;;;;;;;;7.85;nan;101923.91;5019586;28;19914;-86
2023/02/04 01:41:56;;;;;;;;;;;;;;;7.86;nan;101934.34;5012323;28;19913;-87
2023/02/04 01:44:22;;;;;;;;;;;;;;;7.87;nan;101938.66;5013453;28;20008;-85
2023/02/04 01:46:47;;;;;;;;;;;;;;;7.88;nan;101942.97;5008700;28;19949;-87
2023/02/04 01:49:16;;;;;;;;;;;;;;;7.85;nan;101937.91;5012206;28;19914;-86
2023/02/04 01:51:41;;;;;;;;;;;;;;;7.83;nan;101934.53;5019304;28;20279;-87
2023/02/04 01:54:09;;;;;;;;;;;;;;;7.83;nan;101929.25;5012139;28;19945;-86
2023/02/04 01:56:34;;;;;;;;;;;;;;;7.83;nan;101938.97;5016659;28;19921;-86
2023/02/04 01:59:00;;;;;;;;;;;;;;;7.78;nan;101941.88;5024840;28;19959;-85
2023/02/04 02:01:51;;;;;;;;;;;;;;;7.78;nan;101943.69;5014162;28;19972;-86
2023/02/04 02:04:25;;;;;;;;;;;;;;;7.71;nan;101950.28;5021382;28;19928;-86
2023/02/04 02:06:57;;;;;;;;;;;;;;;7.73;nan;101949.25;5025840;28;20523;-86
2023/02/04 02:09:23;;;;;;;;;;;;;;;7.72;nan;101947.53;5015877;28;19916;-86
2023/02/04 02:11:48;;;;;;;;;;;;;;;7.73;nan;101943.97;5015613;28;19913;-87
2023/02/04 02:14:14;;;;;;;;;;;;;;;7.69;nan;101944.25;5012762;28;19962;-86
2023/02/04 02:16:39;;;;;;;;;;;;;;;7.70;nan;101943.31;5014255;28;19944;-86
2023/02/04 02:19:06;;;;;;;;;;;;;;;7.66;nan;101940.03;5021462;28;19913;-85
2023/02/04 02:21:36;;;;;;;;;;;;;;;7.67;nan;101939.09;5015700;28;20294;-86
2023/02/04 02:24:21;;;;;;;;;;;;;;;7.69;nan;101941.63;5011713;28;20043;-85
2023/02/04 02:26:47;;;;;;;;;;;;;;;7.64;nan;101947.19;5004105;28;19963;-86
2023/02/04 02:29:12;;;;;;;;;;;;;;;7.64;nan;101957.72;5011273;28;20357;-85
2023/02/04 02:31:38;;;;;;;;;;;;;;;7.67;nan;101944.34;5007372;28;19925;-85
2023/02/04 02:34:03;;;;;;;;;;;;;;;7.60;nan;101948.31;5009767;28;20325;-85
2023/02/04 02:36:28;;;;;;;;;;;;;;;7.64;nan;101955.09;5017562;28;20021;-86
2023/02/04 02:38:54;;;;;;;;;;;;;;;7.61;nan;101958.75;5006967;28;20018;-85
2023/02/04 02:41:22;;;;;;;;;;;;;;;7.63;nan;101961.31;5012059;28;19918;-86
2023/02/04 02:43:47;;;;;;;;;;;;;;;7.62;nan;101965.69;5008688;28;19924;-86
2023/02/04 02:46:13;;;;;;;;;;;;;;;7.61;nan;101969.28;5010173;28;20353;-86
2023/02/04 02:48:38;;;;;;;;;;;;;;;7.59;nan;101962.44;5014852;28;19925;-87
2023/02/04 02:51:03;;;;;;;;;;;;;;;7.56;nan;101960.00;5019146;28;19924;-85
2023/02/04 02:53:28;;;;;;;;;;;;;;;7.55;nan;101972.31;5011378;28;20271;-86
2023/02/04 02:55:54;;;;;;;;;;;;;;;7.53;nan;101962.81;5009614;28;19944;-85
2023/02/04 02:58:25;;;;;;;;;;;;;;;7.52;nan;101971.66;5008353;28;19941;-86
2023/02/04 03:00:50;;;;;;;;;;;;;;;7.50;nan;101970.91;5011274;28;19918;-86
2023/02/04 03:03:19;;;;;;;;;;;;;;;7.51;nan;101975.22;5010043;28;19918;-85
2023/02/04 03:05:46;;;;;;;;;;;;;;;7.47;nan;101971.94;5012364;28;19917;-85
2023/02/04 03:08:13;;;;;;;;;;;;;;;7.44;nan;101978.25;5006938;28;20012;-85
2023/02/04 03:10:39;;;;;;;;;;;;;;;7.45;nan;101979.09;5008678;28;19960;-85
2023/02/04 03:13:04;;;;;;;;;;;;;;;7.42;nan;101982.75;5010060;28;19918;-85
2023/02/04 03:15:30;;;;;;;;;;;;;;;7.42;nan;101982.75;5007807;28;19936;-85
2023/02/04 03:17:57;;;;;;;;;;;;;;;7.38;nan;101983.88;5016595;28;19924;-85
2023/02/04 03:20:26;;;;;;;;;;;;;;;7.36;nan;101983.13;5009392;28;20414;-85
2023/02/04 03:22:53;;;;;;;;;;;;;;;7.33;nan;101987.75;5009966;28;20051;-85
2023/02/04 03:25:27;;;;;;;;;;;;;;;7.35;nan;101991.13;5014315;28;19918;-85
2023/02/04 03:27:58;;;;;;;;;;;;;;;7.32;nan;101997.44;5011799;28;19964;-85
2023/02/04 03:30:27;;;;;;;;;;;;;;;7.26;nan;102000.44;5010932;28;19940;-85
2023/02/04 03:32:53;;;;;;;;;;;;;;;7.25;nan;102001.38;5011011;28;19917;-84
2023/02/04 03:35:19;;;;;;;;;;;;;;;7.26;nan;102004.84;5022029;28;19917;-85
2023/02/04 03:37:44;;;;;;;;;;;;;;;7.21;nan;102000.72;5008615;28;19921;-85
2023/02/04 03:40:10;;;;;;;;;;;;;;;7.18;nan;102006.16;5006922;28;19994;-85
2023/02/04 03:42:41;;;;;;;;;;;;;;;7.17;nan;102006.25;5013873;28;19921;-85
2023/02/04 03:45:07;;;;;;;;;;;;;;;7.17;nan;102008.88;5013049;28;19926;-85
2023/02/04 03:47:35;;;;;;;;;;;;;;;7.14;nan;102017.81;5012762;28;19924;-85
2023/02/04 03:50:00;;;;;;;;;;;;;;;7.15;nan;102026.53;5006297;28;19925;-85
2023/02/04 03:52:26;;;;;;;;;;;;;;;7.14;nan;102040.66;5023461;28;19956;-85
2023/02/04 03:54:52;;;;;;;;;;;;;;;7.15;nan;102050.22;5012134;28;19926;-85
2023/02/04 03:57:17;;;;;;;;;;;;;;;7.13;nan;102063.47;5001585;28;19922;-85
2023/02/04 03:59:43;;;;;;;;;;;;;;;7.13;nan;102058.22;5018602;28;19912;-85
2023/02/04 04:02:09;;;;;;;;;;;;;;;7.10;nan;102053.13;5015534;28;20012;-85
2023/02/04 04:04:34;;;;;;;;;;;;;;;7.06;nan;102056.91;5012914;28;19913;-85
2023/02/04 04:07:07;;;;;;;;;;;;;;;7.00;nan;102050.19;5027125;28;19917;-85
2023/02/04 04:09:34;;;;;;;;;;;;;;;6.99;nan;102051.16;5013628;28;19920;-85
2023/02/04 04:12:02;;;;;;;;;;;;;;;6.95;nan;102043.53;5017857;28;19917;-85
2023/02/04 04:14:28;;;;;;;;;;;;;;;6.92;nan;102044.56;5020128;28;19945;-85
2023/02/04 04:16:54;;;;;;;;;;;;;;;6.89;nan;102052.63;5028116;28;19928;-85
2023/02/04 04:19:21;;;;;;;;;;;;;;;6.86;nan;102052.78;5024138;28;19913;-85
2023/02/04 04:21:47;;;;;;;;;;;;;;;6.85;nan;102060.78;5029034;28;19917;-85
2023/02/04 04:24:14;;;;;;;;;;;;;;;6.83;nan;102067.91;5016564;28;20229;-85
2023/02/04 04:26:42;;;;;;;;;;;;;;;6.79;nan;102056.72;5008209;28;19921;-84
2023/02/04 04:29:10;;;;;;;;;;;;;;;6.78;nan;102065.56;5013360;28;19948;-85
2023/02/04 04:31:36;;;;;;;;;;;;;;;6.73;nan;102071.06;5012826;28;19964;-85
2023/02/04 04:34:01;;;;;;;;;;;;;;;6.73;nan;102072.88;5022148;28;19921;-85
2023/02/04 04:36:27;;;;;;;;;;;;;;;6.70;nan;102080.94;5004649;28;19934;-85
2023/02/04 04:38:52;;;;;;;;;;;;;;;6.68;nan;102074.91;5012849;28;19917;-85
2023/02/04 04:41:17;;;;;;;;;;;;;;;6.63;nan;102082.22;5003795;28;19918;-85
2023/02/04 04:43:43;;;;;;;;;;;;;;;6.60;nan;102083.22;5006592;28;19928;-87
2023/02/04 04:46:10;;;;;;;;;;;;;;;6.57;nan;102088.66;5009763;28;19929;-86
2023/02/04 04:48:36;;;;;;;;;;;;;;;6.57;nan;102093.91;5017396;28;19940;-85
2023/02/04 04:51:01;;;;;;;;;;;;;;;6.55;nan;102096.66;5019072;28;19945;-85
2023/02/04 04:53:30;;;;;;;;;;;;;;;6.52;nan;102106.47;5015748;28;19971;-85
2023/02/04 04:55:55;;;;;;;;;;;;;;;6.51;nan;102100.38;5016444;28;19930;-86
2023/02/04 04:58:21;;;;;;;;;;;;;;;6.48;nan;102095.28;5013263;28;19925;-85
2023/02/04 05:00:47;;;;;;;;;;;;;;;6.45;nan;102078.84;5012574;28;19912;-85
2023/02/04 05:03:12;;;;;;;;;;;;;;;6.39;nan;102090.56;5011023;28;19924;-85
2023/02/04 05:05:40;;;;;;;;;;;;;;;6.39;nan;102085.31;5010444;28;19917;-85
2023/02/04 05:08:09;;;;;;;;;;;;;;;6.42;nan;102073.78;5009369;28;20024;-85
2023/02/04 05:10:35;;;;;;;;;;;;;;;6.42;nan;102084.28;5009265;28;20005;-86
2023/02/04 05:13:00;;;;;;;;;;;;;;;6.41;nan;102086.03;5008044;28;19953;-86
2023/02/04 05:15:26;;;;;;;;;;;;;;;6.43;nan;102083.34;5012037;28;19917;-86
2023/02/04 05:17:52;;;;;;;;;;;;;;;6.45;nan;102076.22;5012629;28;19921;-86
2023/02/04 05:20:20;;;;;;;;;;;;;;;6.46;nan;102080.53;5012690;28;19921;-85
2023/02/04 05:22:45;;;;;;;;;;;;;;;6.44;nan;102080.63;5011747;28;20460;-85
2023/02/04 05:25:15;;;;;;;;;;;;;;;6.42;nan;102086.91;5012352;28;20534;-85
2023/02/04 05:27:41;;;;;;;;;;;;;;;6.42;nan;102086.91;5013787;28;20452;-86
2023/02/04 05:30:08;;;;;;;;;;;;;;;6.40;nan;102092.25;5014813;28;19917;-85
2023/02/04 05:32:37;;;;;;;;;;;;;;;6.35;nan;102095.13;5030105;28;19975;-85
2023/02/04 05:35:05;;;;;;;;;;;;;;;6.31;nan;102092.75;5018479;28;19924;-85
2023/02/04 05:37:31;;;;;;;;;;;;;;;6.32;nan;102092.69;5009372;28;19921;-85
2023/02/04 05:39:56;;;;;;;;;;;;;;;6.30;nan;102107.69;5017831;28;19917;-84
2023/02/04 05:42:22;;;;;;;;;;;;;;;6.29;nan;102115.63;5010449;28;19977;-85
2023/02/04 05:44:50;;;;;;;;;;;;;;;6.28;nan;102119.19;5011472;28;19918;-85
2023/02/04 05:47:16;;;;;;;;;;;;;;;6.28;nan;102117.41;5009669;28;20124;-85
2023/02/04 05:49:41;;;;;;;;;;;;;;;6.29;nan;102124.38;5023812;28;20044;-85
2023/02/04 05:52:07;;;;;;;;;;;;;;;6.28;nan;102130.56;5013371;28;20185;-85
2023/02/04 05:54:32;;;;;;;;;;;;;;;6.30;nan;102120.81;5012144;28;19922;-85
2023/02/04 05:56:57;;;;;;;;;;;;;;;6.31;nan;102124.28;5010496;28;19928;-85
2023/02/04 05:59:23;;;;;;;;;;;;;;;6.28;nan;102125.28;5009853;28;19945;-86
2023/02/04 06:01:48;;;;;;;;;;;;;;;6.27;nan;102128.88;5009337;28;19971;-85
2023/02/04 06:04:16;;;;;;;;;;;;;;;6.27;nan;102130.63;5007880;28;19918;-86
2023/02/04 06:06:42;;;;;;;;;;;;;;;6.22;nan;102133.53;5019333;28;19917;-85
2023/02/04 06:09:08;;;;;;;;;;;;;;;6.21;nan;102133.59;5010301;28;19918;-85
2023/02/04 06:11:33;;;;;;;;;;;;;;;6.19;nan;102138.09;5011785;28;20012;-85
2023/02/04 06:14:01;;;;;;;;;;;;;;;6.16;nan;102141.72;5014432;28;19917;-85
2023/02/04 06:16:26;;;;;;;;;;;;;;;6.11;nan;102146.38;5010426;28;19936;-85
2023/02/04 06:18:52;;;;;;;;;;;;;;;6.05;nan;102158.06;5016797;28;19917;-85
2023/02/04 06:21:20;;;;;;;;;;;;;;;6.00;nan;102160.09;5011261;28;19921;-85
2023/02/04 06:23:46;;;;;;;;;;;;;;;5.97;nan;102156.78;5012610;28;19924;-86
2023/02/04 06:26:14;;;;;;;;;;;;;;;5.91;nan;102155.28;5007655;28;19925;-85
2023/02/04 06:28:40;;;;;;;;;;;;;;;5.86;nan;102154.69;5016416;28;20505;-86
2023/02/04 06:31:05;;;;;;;;;;;;;;;5.82;nan;102159.28;5027259;28;20438;-86
2023/02/04 06:33:31;;;;;;;;;;;;;;;5.81;nan;102167.22;5009851;28;19949;-84
2023/02/04 06:35:56;;;;;;;;;;;;;;;5.75;nan;102177.09;5009101;28;19983;-86
2023/02/04 06:38:22;;;;;;;;;;;;;;;5.69;nan;102174.78;5011400;28;20373;-85
2023/02/04 06:40:52;;;;;;;;;;;;;;;5.63;nan;102177.75;5013550;28;19918;-85
2023/02/04 06:43:18;;;;;;;;;;;;;;;5.56;nan;102180.78;5010809;28;19918;-85
2023/02/04 06:45:43;;;;;;;;;;;;;;;5.48;nan;102191.63;5016790;28;19918;-85
2023/02/04 06:48:08;;;;;;;;;;;;;;;5.43;nan;102189.25;5011241;28;19966;-85
2023/02/04 06:50:34;;;;;;;;;;;;;;;5.39;nan;102195.59;5012266;28;19917;-85
2023/02/04 06:52:59;;;;;;;;;;;;;;;5.36;nan;102195.72;5007391;28;19940;-85
2023/02/04 06:55:24;;;;;;;;;;;;;;;5.33;nan;102193.25;5011064;28;19921;-85
2023/02/04 06:57:50;;;;;;;;;;;;;;;5.31;nan;102192.50;5009937;28;19932;-85
2023/02/04 07:00:15;;;;;;;;;;;;;;;5.32;nan;102195.03;5015264;28;19964;-85
2023/02/04 07:02:41;;;;;;;;;;;;;;;5.31;nan;102198.59;5009087;28;20390;-85
2023/02/04 07:05:07;;;;;;;;;;;;;;;5.35;nan;102201.91;5009535;28;19917;-85
2023/02/04 07:07:35;;;;;;;;;;;;;;;5.39;nan;102195.59;5021786;28;19964;-85
2023/02/04 07:10:01;;;;;;;;;;;;;;;5.43;nan;102201.53;5027240;28;19928;-85
2023/02/04 07:12:29;;;;;;;;;;;;;;;5.43;nan;102204.97;5012505;28;19921;-85
2023/02/04 07:14:57;;;;;;;;;;;;;;;5.42;nan;102210.31;5011591;28;20295;-85
2023/02/04 07:17:23;;;;;;;;;;;;;;;5.40;nan;102214.78;5010808;28;19981;-85
2023/02/04 07:19:48;;;;;;;;;;;;;;;5.42;nan;102218.19;5013849;28;19957;-85
2023/02/04 07:22:13;;;;;;;;;;;;;;;5.42;nan;102220.81;5005803;28;20017;-85
2023/02/04 07:24:39;;;;;;;;;;;;;;;5.43;nan;102228.59;5013986;28;20394;-85
2023/02/04 07:27:04;;;;;;;;;;;;;;;5.47;nan;102237.19;5011947;28;20275;-85
2023/02/04 07:29:30;;;;;;;;;;;;;;;5.50;nan;102234.38;5009412;28;20006;-85
2023/02/04 07:32:00;;;;;;;;;;;;;;;5.59;nan;102249.69;5012405;28;19913;-85
2023/02/04 07:34:26;;;;;;;;;;;;;;;5.66;nan;102243.19;5011975;28;19925;-86
2023/02/04 07:36:51;;;;;;;;;;;;;;;5.77;nan;102252.28;5014219;28;19929;-85
2023/02/04 07:39:17;;;;;;;;;;;;;;;5.85;nan;102256.22;5011733;28;20429;-86
2023/02/04 07:41:42;;;;;;;;;;;;;;;5.93;nan;102253.19;5010320;28;19929;-85
2023/02/04 07:44:07;;;;;;;;;;;;;;;6.01;nan;102258.13;5009600;28;19963;-85
2023/02/04 07:46:33;;;;;;;;;;;;;;;6.06;nan;102261.34;5014477;28;20251;-86
2023/02/04 07:48:58;;;;;;;;;;;;;;;6.13;nan;102267.97;5014202;28;19917;-85
2023/02/04 07:51:23;;;;;;;;;;;;;;;6.18;nan;102275.63;5019813;28;19922;-85
2023/02/04 07:53:48;;;;;;;;;;;;;;;6.24;nan;102285.78;5012527;28;19925;-86
2023/02/04 07:56:14;;;;;;;;;;;;;;;6.28;nan;102276.81;5011342;28;19988;-86
2023/02/04 07:58:39;;;;;;;;;;;;;;;6.28;nan;102288.19;5018392;28;20012;-85
2023/02/04 08:01:04;;;;;;;;;;;;;;;6.30;nan;102281.06;5014485;28;20404;-85
2023/02/04 08:03:30;;;;;;;;;;;;;;;6.34;nan;102290.50;5012261;28;19921;-85
2023/02/04 08:05:55;;;;;;;;;;;;;;;6.40;nan;102296.34;5011608;28;19917;-86
2023/02/04 08:08:21;;;;;;;;;;;;;;;6.49;nan;102298.50;5011848;28;19922;-86
2023/02/04 08:10:46;;;;;;;;;;;;;;;6.54;nan;102294.69;5009822;28;20599;-86
2023/02/04 08:13:12;;;;;;;;;;;;;;;6.57;nan;102288.41;5012414;28;20012;-86
2023/02/04 08:15:39;;;;;;;;;;;;;;;6.56;nan;102291.97;5014858;28;21005;-86
2023/02/04 08:18:05;;;;;;;;;;;;;;;6.57;nan;102298.91;5009082;28;19924;-87
2023/02/04 08:20:30;;;;;;;;;;;;;;;6.63;nan;102303.03;5020387;28;19925;-87
2023/02/04 08:22:56;;;;;;;;;;;;;;;6.73;nan;102309.47;5013264;28;20541;-86
2023/02/04 08:25:21;;;;;;;;;;;;;;;6.81;nan;102302.00;5016715;28;19996;-85
2023/02/04 08:27:47;;;;;;;;;;;;;;;6.91;nan;102308.47;5018397;28;20437;-85
2023/02/04 08:30:12;;;;;;;;;;;;;;;7.02;nan;102308.72;5011776;28;19921;-86
2023/02/04 08:32:38;;;;;;;;;;;;;;;7.15;nan;102313.28;5010180;28;19920;-87
2023/02/04 08:35:06;;;;;;;;;;;;;;;7.29;nan;102321.25;5008402;28;20012;-85
2023/02/04 08:37:31;;;;;;;;;;;;;;;7.44;nan;102317.78;5011943;28;19953;-85
2023/02/04 08:39:57;;;;;;;;;;;;;;;7.62;nan;102329.00;5013866;28;20337;-85
2023/02/04 08:42:22;;;;;;;;;;;;;;;7.69;nan;102326.88;5018769;28;19917;-86
2023/02/04 08:44:47;;;;;;;;;;;;;;;7.66;nan;102332.34;5016202;28;19940;-86
2023/02/04 08:47:13;;;;;;;;;;;;;;;7.61;nan;102329.13;5013495;28;20446;-87
2023/02/04 08:49:38;;;;;;;;;;;;;;;7.58;nan;102335.41;5014583;28;19917;-86
2023/02/04 08:52:04;;;;;;;;;;;;;;;7.61;nan;102334.38;5021475;28;20309;-85
2023/02/04 08:54:30;;;;;;;;;;;;;;;7.67;nan;102347.19;5009716;28;19939;-85
2023/02/04 08:56:55;;;;;;;;;;;;;;;7.71;nan;102345.25;5026764;28;19921;-85
2023/02/04 08:59:22;;;;;;;;;;;;;;;7.76;nan;102354.56;5025579;28;19969;-86
2023/02/04 09:01:51;;;;;;;;;;;;;;;7.81;nan;102357.78;5019669;28;19927;-86
2023/02/04 09:04:16;;;;;;;;;;;;;;;7.93;nan;102364.13;5014025;28;19913;-85
2023/02/04 09:06:42;;;;;;;;;;;;;;;8.02;nan;102371.47;5011179;28;19967;-85
2023/02/04 09:09:07;;;;;;;;;;;;;;;8.09;nan;102364.91;5019464;28;19917;-85
2023/02/04 09:11:33;;;;;;;;;;;;;;;8.18;nan;102366.16;5016701;28;19953;-85
2023/02/04 09:13:58;;;;;;;;;;;;;;;8.21;nan;102363.34;5020759;28;19913;-86
2023/02/04 09:16:23;;;;;;;;;;;;;;;8.36;nan;102366.84;5018580;28;19917;-86
2023/02/04 09:18:49;;;;;;;;;;;;;;;8.56;nan;102363.06;5005299;28;19957;-85
2023/02/04 09:21:14;;;;;;;;;;;;;;;8.70;nan;102364.84;5002605;28;19917;-86
2023/02/04 09:23:41;;;;;;;;;;;;;;;8.68;nan;102358.81;5008606;28;20800;-85
2023/02/04 09:26:06;;;;;;;;;;;;;;;8.70;nan;102368.31;5011533;28;20004;-86
2023/02/04 09:28:32;;;;;;;;;;;;;;;8.81;nan;102366.81;5012252;28;19980;-86
2023/02/04 09:30:59;;;;;;;;;;;;;;;8.86;nan;102372.66;5003198;28;19921;-85
2023/02/04 09:33:27;;;;;;;;;;;;;;;9.06;nan;102372.25;5009906;28;19924;-86
2023/02/04 09:35:52;;;;;;;;;;;;;;;9.08;nan;102364.22;5011125;28;19952;-86
2023/02/04 09:38:18;;;;;;;;;;;;;;;8.96;nan;102365.84;5006138;28;19917;-86
2023/02/04 09:40:48;;;;;;;;;;;;;;;8.86;nan;102370.00;5011257;28;19940;-86
2023/02/04 09:43:17;;;;;;;;;;;;;;;8.77;nan;102368.81;5012904;28;19940;-87
2023/02/04 09:45:43;;;;;;;;;;;;;;;8.57;nan;102364.72;5009737;28;20000;-86
2023/02/04 09:48:12;;;;;;;;;;;;;;;8.45;nan;102363.69;5009751;28;20017;-85
2023/02/04 09:50:37;;;;;;;;;;;;;;;8.29;nan;102376.94;5014474;28;19923;-85
2023/02/04 09:53:04;;;;;;;;;;;;;;;8.29;nan;102384.84;5016870;28;20008;-85
2023/02/04 09:55:31;;;;;;;;;;;;;;;8.25;nan;102388.59;5027876;28;19917;-86
2023/02/04 09:57:56;;;;;;;;;;;;;;;8.28;nan;102391.03;5016257;28;19917;-85
2023/02/04 10:00:26;;;;;;;;;;;;;;;8.40;nan;102396.56;5012961;28;19918;-85
2023/02/04 10:02:51;;;;;;;;;;;;;;;8.44;nan;102398.06;5008106;28;20406;-85
2023/02/04 10:05:30;;;;;;;;;;;;;;;8.65;nan;102415.25;5007990;28;20002;-85
2023/02/04 10:07:56;;;;;;;;;;;;;;;8.88;nan;102399.78;5007153;28;20383;-85
2023/02/04 10:10:25;;;;;;;;;;;;;;;9.01;nan;102408.66;5008409;28;19929;-85
2023/02/04 10:12:52;;;;;;;;;;;;;;;9.16;nan;102400.72;5006658;28;19926;-85
2023/02/04 10:15:19;;;;;;;;;;;;;;;9.48;nan;102401.28;5024300;28;20133;-85
2023/02/04 10:17:49;;;;;;;;;;;;;;;9.49;nan;102401.22;5009514;28;19917;-85
2023/02/04 10:20:19;;;;;;;;;;;;;;;9.55;nan;102406.06;5008722;28;19964;-85
2023/02/04 10:22:45;;;;;;;;;;;;;;;9.54;nan;102407.03;5007828;28;19959;-86
2023/02/04 10:25:14;;;;;;;;;;;;;;;9.62;nan;102406.53;5007476;28;19948;-85
2023/02/04 10:27:49;;;;;;;;;;;;;;;9.57;nan;102414.75;5007149;28;20353;-85
2023/02/04 10:30:19;;;;;;;;;;;;;;;9.30;nan;102414.72;5007677;28;19921;-85
2023/02/04 10:32:50;;;;;;;;;;;;;;;9.28;nan;102413.13;4999296;28;19921;-85
2023/02/04 10:35:17;;;;;;;;;;;;;;;9.21;nan;102419.75;5004822;28;19918;-85
2023/02/04 10:37:44;;;;;;;;;;;;;;;9.17;nan;102419.06;5006862;28;20385;-84
2023/02/04 10:40:30;;;;;;;;;;;;;;;8.99;nan;102430.78;5008903;28;19918;-84
2023/02/04 10:42:58;;;;;;;;;;;;;;;8.88;nan;102427.00;5009775;28;19917;-84
2023/02/04 10:45:24;;;;;;;;;;;;;;;8.91;nan;102424.19;5001640;28;20046;-85
2023/02/04 10:47:50;;;;;;;;;;;;;;;8.84;nan;102428.16;5004700;28;20353;-84
2023/02/04 10:50:20;;;;;;;;;;;;;;;8.90;nan;102421.66;5000889;28;19972;-85
2023/02/04 10:52:50;;;;;;;;;;;;;;;9.00;nan;102416.66;5021862;28;19921;-85
2023/02/04 10:55:17;;;;;;;;;;;;;;;9.10;nan;102423.88;5007585;28;20008;-84
2023/02/04 10:57:46;;;;;;;;;;;;;;;9.19;nan;102426.91;5010037;28;19918;-84
2023/02/04 11:00:22;;;;;;;;;;;;;;;9.04;nan;102429.56;5007676;28;19928;-85
2023/02/04 11:02:53;;;;;;;;;;;;;;;8.93;nan;102424.09;5012538;28;19959;-83
2023/02/04 11:05:20;;;;;;;;;;;;;;;9.03;nan;102413.81;5008956;28;19926;-86
2023/02/04 11:07:48;;;;;;;;;;;;;;;9.04;nan;102413.72;5006770;28;20078;-84
2023/02/04 11:10:24;;;;;;;;;;;;;;;9.01;nan;102413.94;5008632;28;19971;-84
2023/02/04 11:12:52;;;;;;;;;;;;;;;9.19;nan;102419.00;5005758;28;19924;-84
2023/02/04 11:15:37;;;;;;;;;;;;;;;9.49;nan;102417.06;5019001;28;19917;-84
2023/02/04 11:18:04;;;;;;;;;;;;;;;10.98;nan;102416.81;5005337;28;19918;-87
2023/02/04 11:20:31;;;;;;;;;;;;;;;12.13;nan;102418.22;5012583;28;20355;-86
2023/02/04 11:23:12;;;;;;;;;;;;;;;12.13;nan;102416.41;5009744;28;19921;-86
2023/02/04 11:25:39;;;;;;;;;;;;;;;11.77;nan;102410.19;4998947;28;20310;-86
2023/02/04 11:28:17;;;;;;;;;;;;;;;11.78;nan;102411.06;5001059;28;19968;-85
2023/02/04 11:30:45;;;;;;;;;;;;;;;11.47;nan;102413.31;4998717;28;19984;-87
2023/02/04 11:33:22;;;;;;;;;;;;;;;11.64;nan;102410.28;5017866;28;19971;-86
2023/02/04 11:36:03;;;;;;;;;;;;;;;11.44;nan;102414.38;5009679;28;20172;-86
2023/02/04 11:38:29;;;;;;;;;;;;;;;11.48;nan;102422.94;5023600;28;19948;-86
2023/02/04 11:40:56;;;;;;;;;;;;;;;11.63;nan;102435.09;5010307;28;19918;-86
2023/02/04 11:43:21;;;;;;;;;;;;;;;11.74;nan;102428.16;5007231;28;19921;-86
2023/02/04 11:45:46;;;;;;;;;;;;;;;11.56;nan;102420.59;5011155;28;19944;-86
2023/02/04 11:48:14;;;;;;;;;;;;;;;11.76;nan;102415.63;4999603;28;20096;-85
2023/02/04 11:50:40;;;;;;;;;;;;;;;11.72;nan;102415.00;5008864;28;20228;-86
2023/02/04 11:53:11;;;;;;;;;;;;;;;11.65;nan;102419.91;5008434;28;19917;-88
2023/02/04 11:55:42;;;;;;;;;;;;;;;11.46;nan;102411.59;5007638;28;19918;-88
2023/02/04 11:58:24;;;;;;;;;;;;;;;11.70;nan;102411.63;4993878;28;19935;-87
2023/02/04 12:00:52;;;;;;;;;;;;;;;11.88;nan;102412.09;5021423;28;19917;-87
2023/02/04 12:03:20;;;;;;;;;;;;;;;11.61;nan;102409.66;5018303;28;20028;-86
2023/02/04 12:05:58;;;;;;;;;;;;;;;11.81;nan;102416.97;5033445;28;19914;-87
2023/02/04 12:08:26;;;;;;;;;;;;;;;11.72;nan;102415.00;5029716;28;19951;-88
2023/02/04 12:11:11;;;;;;;;;;;;;;;11.71;nan;102408.03;5030335;28;19913;-88
2023/02/04 12:13:51;;;;;;;;;;;;;;;11.94;nan;102408.16;5028085;28;20218;-87
2023/02/04 12:16:17;;;;;;;;;;;;;;;11.54;nan;102411.06;5005925;28;19921;-87
2023/02/04 12:18:48;;;;;;;;;;;;;;;11.42;nan;102405.69;5013170;28;20374;-86
2023/02/04 12:21:13;;;;;;;;;;;;;;;11.16;nan;102398.78;5004383;28;19960;-87
2023/02/04 12:23:41;;;;;;;;;;;;;;;11.34;nan;102408.03;5010143;28;20003;-87
2023/02/04 12:26:13;;;;;;;;;;;;;;;11.18;nan;102405.66;5011051;28;19937;-87
2023/02/04 12:28:58;;;;;;;;;;;;;;;11.10;nan;102408.00;5009738;28;19913;-87
2023/02/04 12:31:29;;;;;;;;;;;;;;;10.93;nan;102405.69;5017183;28;20266;-87
2023/02/04 12:34:00;;;;;;;;;;;;;;;10.67;nan;102412.81;5011868;28;19917;-87
2023/02/04 12:36:26;;;;;;;;;;;;;;;10.53;nan;102408.47;5000611;28;19941;-87
2023/02/04 12:38:57;;;;;;;;;;;;;;;10.37;nan;102420.09;5009917;28;19995;-87
2023/02/04 12:41:39;;;;;;;;;;;;;;;10.30;nan;102424.13;5006338;28;19917;-87
2023/02/04 12:44:16;;;;;;;;;;;;;;;10.08;nan;102415.88;5011047;28;19917;-87
2023/02/04 12:46:47;;;;;;;;;;;;;;;10.09;nan;102425.50;5004053;28;19921;-87
2023/02/04 12:49:16;;;;;;;;;;;;;;;10.16;nan;102422.34;5010278;28;19945;-87
2023/02/04 12:51:51;;;;;;;;;;;;;;;10.12;nan;102420.84;5009930;28;20404;-87
2023/02/04 12:54:31;;;;;;;;;;;;;;;10.09;nan;102415.78;5026298;23;20091;-86
2023/02/04 12:57:04;;;;;;;;;;;;;;;10.01;nan;102418.09;5024455;28;20205;-87
2023/02/04 12:59:35;;;;;;;;;;;;;;;9.98;nan;102420.94;5033737;28;19913;-87
2023/02/04 13:02:00;;;;;;;;;;;;;;;9.89;nan;102421.53;5022803;28;20257;-87
2023/02/04 13:04:26;;;;;;;;;;;;;;;9.96;nan;102420.19;5036456;28;19925;-87